Time;durP1;ratioP1;P1;durP2;ratioP2;P2;SDS_P1;SDS_P2;PMS_P1;PMS_P2;Temp;Humidity;BMP_temperature;BMP_pressure;BME280_temperature;BME280_humidity;BME280_pressure;Samples;Min_cycle;Max_cycle;Signal;HPM_P1;HPM_P2
2023/06/26 00:01:17;;;;;;;4.97;1.60;;;23.20;99.90;;;;;;5035700;28;20477;-73
2023/06/26 00:03:42;;;;;;;2.78;1.45;;;23.20;99.90;;;;;;5035912;28;20083;-73
2023/06/26 00:06:08;;;;;;;2.88;1.67;;;23.20;99.90;;;;;;5034516;28;20366;-73
2023/06/26 00:08:33;;;;;;;4.13;2.17;;;23.20;99.90;;;;;;5035709;28;20017;-73
2023/06/26 00:10:59;;;;;;;2.58;1.65;;;23.20;99.90;;;;;;5036179;28;20029;-73
2023/06/26 00:13:25;;;;;;;3.35;1.60;;;23.20;99.90;;;;;;5035534;28;20037;-73
2023/06/26 00:15:51;;;;;;;1.60;1.30;;;23.20;99.90;;;;;;5035528;28;20022;-73
2023/06/26 00:18:16;;;;;;;2.58;1.80;;;23.30;99.90;;;;;;5035984;28;20014;-73
2023/06/26 00:20:42;;;;;;;1.90;1.15;;;23.30;99.90;;;;;;5035680;28;20037;-73
2023/06/26 00:23:08;;;;;;;3.08;2.20;;;23.30;99.90;;;;;;5035411;28;20036;-73
2023/06/26 00:25:34;;;;;;;4.43;1.33;;;23.20;99.90;;;;;;5035366;28;20022;-73
2023/06/26 00:27:59;;;;;;;2.03;1.58;;;23.30;99.90;;;;;;5035797;28;20060;-73
2023/06/26 00:30:25;;;;;;;1.73;1.00;;;23.30;99.90;;;;;;5035379;28;20033;-73
2023/06/26 00:32:51;;;;;;;2.40;1.40;;;23.30;99.90;;;;;;5035175;28;20025;-73
2023/06/26 00:35:17;;;;;;;2.88;1.55;;;23.20;99.90;;;;;;5035167;28;20021;-73
2023/06/26 00:37:42;;;;;;;4.78;1.80;;;23.20;99.90;;;;;;5035120;28;20067;-73
2023/06/26 00:40:08;;;;;;;1.80;1.23;;;23.20;99.90;;;;;;5035296;28;20034;-73
2023/06/26 00:42:34;;;;;;;1.75;1.02;;;23.10;99.90;;;;;;5034951;28;20028;-73
2023/06/26 00:45:00;;;;;;;4.25;1.58;;;23.10;99.90;;;;;;5035010;28;20104;-73
2023/06/26 00:47:27;;;;;;;2.38;1.23;;;23.10;99.90;;;;;;5035356;28;20044;-73
2023/06/26 00:49:55;;;;;;;2.15;1.38;;;23.00;99.90;;;;;;5035606;28;20029;-73
2023/06/26 00:52:20;;;;;;;2.65;1.58;;;23.00;99.90;;;;;;5049492;28;20029;-73
2023/06/26 00:54:47;;;;;;;2.08;1.00;;;22.90;99.90;;;;;;5033561;28;20032;-73
2023/06/26 00:57:12;;;;;;;4.20;1.83;;;22.90;99.90;;;;;;5034722;28;20056;-73
2023/06/26 00:59:38;;;;;;;2.75;1.70;;;22.90;99.90;;;;;;5034791;28;20420;-75
2023/06/26 01:02:04;;;;;;;3.88;1.42;;;23.00;99.90;;;;;;5050102;28;20022;-73
2023/06/26 01:04:32;;;;;;;2.50;1.20;;;23.10;99.90;;;;;;5034651;28;20527;-74
2023/06/26 01:06:58;;;;;;;2.80;1.58;;;23.20;99.90;;;;;;5034592;28;20029;-73
2023/06/26 01:09:25;;;;;;;2.25;1.17;;;23.20;99.90;;;;;;5034713;28;20030;-71
2023/06/26 01:11:50;;;;;;;6.88;1.75;;;23.20;99.90;;;;;;5034558;28;20460;-71
2023/06/26 01:14:16;;;;;;;3.13;1.83;;;23.20;99.90;;;;;;5034433;28;20044;-73
2023/06/26 01:16:47;;;;;;;2.47;1.33;;;23.10;99.90;;;;;;5034324;28;20029;-73
2023/06/26 01:19:28;;;;;;;2.88;1.48;;;23.00;99.90;;;;;;5034406;28;20380;-73
2023/06/26 01:22:00;;;;;;;2.65;1.80;;;22.80;99.90;;;;;;5034286;28;20022;-74
2023/06/26 01:24:33;;;;;;;3.33;1.75;;;22.80;99.90;;;;;;5034983;28;20505;-73
2023/06/26 01:27:00;;;;;;;3.60;1.48;;;22.70;99.90;;;;;;5034337;28;20021;-73
2023/06/26 01:29:28;;;;;;;2.95;1.20;;;22.70;99.90;;;;;;5034216;28;20025;-73
2023/06/26 01:31:54;;;;;;;6.77;2.10;;;22.60;99.90;;;;;;5034769;28;20087;-73
2023/06/26 01:34:20;;;;;;;2.72;1.10;;;22.50;99.90;;;;;;5034123;28;20026;-74
2023/06/26 01:36:46;;;;;;;11.90;1.33;;;22.60;99.90;;;;;;5034108;28;20057;-73
2023/06/26 01:39:15;;;;;;;2.80;1.25;;;22.50;99.90;;;;;;5034113;28;20013;-73
2023/06/26 01:41:41;;;;;;;2.47;1.25;;;22.40;99.90;;;;;;5034425;28;20027;-73
2023/06/26 01:44:07;;;;;;;2.80;1.35;;;22.30;99.90;;;;;;5033852;28;20025;-73
2023/06/26 01:46:54;;;;;;;2.53;1.10;;;22.20;99.90;;;;;;5033831;28;20056;-75
2023/06/26 01:49:41;;;;;;;2.35;0.90;;;22.20;99.90;;;;;;5035063;28;20057;-73
2023/06/26 01:52:19;;;;;;;2.78;0.90;;;22.10;99.90;;;;;;5034059;28;20067;-76
2023/06/26 01:54:55;;;;;;;1.40;0.73;;;22.10;99.90;;;;;;5033803;28;20029;-73
2023/06/26 01:57:22;;;;;;;2.28;0.82;;;22.10;99.90;;;;;;5033752;28;20026;-73
2023/06/26 01:59:48;;;;;;;2.63;1.10;;;22.00;99.90;;;;;;5034008;28;20469;-73
2023/06/26 02:02:14;;;;;;;2.63;0.80;;;22.00;99.90;;;;;;5034207;28;20032;-75
2023/06/26 02:04:41;;;;;;;3.95;1.42;;;22.00;99.90;;;;;;5033519;28;20029;-75
2023/06/26 02:07:06;;;;;;;2.80;0.80;;;21.80;99.90;;;;;;5033571;28;20473;-73
2023/06/26 02:09:32;;;;;;;2.50;1.13;;;21.80;99.90;;;;;;5032294;28;20024;-75
2023/06/26 02:11:57;;;;;;;3.70;1.13;;;21.70;99.90;;;;;;5034104;28;20370;-73
2023/06/26 02:14:23;;;;;;;3.67;0.77;;;21.60;99.90;;;;;;5031988;28;20029;-73
2023/06/26 02:16:49;;;;;;;5.22;1.35;;;21.60;99.90;;;;;;5048806;28;20025;-73
2023/06/26 02:19:21;;;;;;;5.40;1.10;;;21.60;99.90;;;;;;5033426;28;20033;-73
2023/06/26 02:21:49;;;;;;;6.88;1.20;;;21.50;99.90;;;;;;5033941;28;20018;-73
2023/06/26 02:24:16;;;;;;;7.85;1.00;;;21.50;99.90;;;;;;5048795;28;20404;-73
2023/06/26 02:26:41;;;;;;;2.75;0.75;;;21.40;99.90;;;;;;5033318;28;20481;-73
2023/06/26 02:29:07;;;;;;;2.88;0.70;;;21.40;99.90;;;;;;5033770;28;20029;-73
2023/06/26 02:31:32;;;;;;;6.20;1.10;;;21.30;99.90;;;;;;5033666;28;20040;-73
2023/06/26 02:33:58;;;;;;;3.85;0.73;;;21.30;99.90;;;;;;5033298;28;20051;-73
2023/06/26 02:36:23;;;;;;;5.47;1.50;;;21.30;99.90;;;;;;5031891;28;20053;-73
2023/06/26 02:38:49;;;;;;;4.00;1.10;;;21.20;99.90;;;;;;5031872;28;20021;-73
2023/06/26 02:41:14;;;;;;;4.93;0.75;;;21.20;99.90;;;;;;5033153;28;20064;-73
2023/06/26 02:43:40;;;;;;;6.90;0.80;;;21.20;99.90;;;;;;5033199;28;20482;-73
2023/06/26 02:46:05;;;;;;;5.65;1.35;;;21.20;99.90;;;;;;5033641;28;20026;-73
2023/06/26 02:48:31;;;;;;;5.60;1.00;;;21.20;99.90;;;;;;5033731;28;20056;-73
2023/06/26 02:50:56;;;;;;;2.08;1.00;;;21.00;99.90;;;;;;5033580;28;20105;-73
2023/06/26 02:53:22;;;;;;;7.70;1.23;;;21.10;99.90;;;;;;5033039;28;20396;-73
2023/06/26 02:55:48;;;;;;;7.25;1.35;;;21.10;99.90;;;;;;5033839;28;20096;-75
2023/06/26 02:58:13;;;;;;;6.53;1.23;;;21.00;99.90;;;;;;5033032;28;20551;-73
2023/06/26 03:00:41;;;;;;;4.15;1.02;;;21.00;99.90;;;;;;5033372;28;20060;-73
2023/06/26 03:03:07;;;;;;;8.30;1.00;;;20.90;99.90;;;;;;5032976;28;20049;-73
2023/06/26 03:05:33;;;;;;;4.85;0.75;;;21.00;99.90;;;;;;5032916;28;20481;-73
2023/06/26 03:07:58;;;;;;;4.10;0.80;;;20.90;99.90;;;;;;5032821;28;20079;-73
2023/06/26 03:10:24;;;;;;;4.53;1.10;;;21.00;99.90;;;;;;5032824;28;20021;-74
2023/06/26 03:12:50;;;;;;;12.38;1.38;;;21.00;99.90;;;;;;5033277;28;20029;-73
2023/06/26 03:15:15;;;;;;;6.30;0.95;;;20.90;99.90;;;;;;5034190;28;20025;-75
2023/06/26 03:17:41;;;;;;;6.43;0.68;;;20.80;99.90;;;;;;5036712;28;20056;-75
2023/06/26 03:20:07;;;;;;;5.72;0.90;;;20.80;99.90;;;;;;5036645;28;20013;-75
2023/06/26 03:22:33;;;;;;;4.80;0.95;;;20.80;99.90;;;;;;5036594;28;20029;-75
2023/06/26 03:24:59;;;;;;;7.53;1.33;;;20.70;99.90;;;;;;5036554;28;20036;-76
2023/06/26 03:27:25;;;;;;;4.60;1.63;;;20.70;99.90;;;;;;5036583;28;20021;-76
2023/06/26 03:29:52;;;;;;;4.50;1.30;;;20.60;99.90;;;;;;5035165;28;20044;-76
2023/06/26 03:32:17;;;;;;;8.38;1.30;;;20.50;99.90;;;;;;5036316;28;20124;-75
2023/06/26 03:34:43;;;;;;;7.15;1.85;;;20.50;99.90;;;;;;5036394;28;20108;-75
2023/06/26 03:37:08;;;;;;;8.40;1.27;;;20.50;99.90;;;;;;5036367;28;20022;-76
2023/06/26 03:39:34;;;;;;;7.95;1.73;;;20.50;99.90;;;;;;5036707;28;20429;-75
2023/06/26 03:42:00;;;;;;;9.35;1.63;;;20.50;99.90;;;;;;5036766;28;20032;-75
2023/06/26 03:44:27;;;;;;;7.78;1.73;;;20.50;99.90;;;;;;5035982;28;20025;-76
2023/06/26 03:46:53;;;;;;;10.50;1.45;;;20.50;99.90;;;;;;5036137;28;20370;-75
2023/06/26 03:49:18;;;;;;;6.28;1.20;;;20.40;99.90;;;;;;5035041;28;20029;-75
2023/06/26 03:51:44;;;;;;;6.88;1.30;;;20.30;99.90;;;;;;5036024;28;20029;-75
2023/06/26 03:54:10;;;;;;;6.68;1.27;;;20.30;99.90;;;;;;5035738;28;20104;-75
2023/06/26 03:56:36;;;;;;;8.75;1.10;;;20.30;99.90;;;;;;5035914;28;20053;-76
2023/06/26 03:59:02;;;;;;;5.07;0.98;;;20.30;99.90;;;;;;5034561;28;20024;-75
2023/06/26 04:01:27;;;;;;;3.88;0.82;;;20.20;99.90;;;;;;5035743;28;20026;-75
2023/06/26 04:03:53;;;;;;;10.25;1.70;;;20.20;99.90;;;;;;5035711;28;20031;-75
2023/06/26 04:06:19;;;;;;;5.97;0.88;;;20.20;99.90;;;;;;5036013;28;20026;-75
2023/06/26 04:08:44;;;;;;;9.15;1.80;;;20.10;99.90;;;;;;5035592;28;20036;-75
2023/06/26 04:11:10;;;;;;;7.88;0.90;;;20.10;99.90;;;;;;5035704;28;20053;-75
2023/06/26 04:13:35;;;;;;;10.23;1.45;;;20.00;99.90;;;;;;5035581;28;20044;-75
2023/06/26 04:16:01;;;;;;;7.70;0.90;;;20.00;99.90;;;;;;5036145;28;20059;-75
2023/06/26 04:18:27;;;;;;;8.20;1.27;;;19.90;99.90;;;;;;5035438;28;20121;-75
2023/06/26 04:21:07;;;;;;;10.27;1.38;;;19.90;99.90;;;;;;5035415;28;20060;-75
2023/06/26 04:23:33;;;;;;;6.47;1.50;;;19.90;99.90;;;;;;5035290;28;20108;-76
2023/06/26 04:25:59;;;;;;;6.10;0.98;;;19.90;99.90;;;;;;5034620;28;20057;-76
2023/06/26 04:28:25;;;;;;;4.47;0.57;;;19.90;99.90;;;;;;5034762;28;20053;-75
2023/06/26 04:30:50;;;;;;;1.90;0.38;;;19.90;99.90;;;;;;5035766;28;20095;-76
2023/06/26 04:33:16;;;;;;;4.80;0.60;;;20.00;99.90;;;;;;5035160;28;20072;-76
2023/06/26 04:35:44;;;;;;;4.72;0.70;;;19.90;99.90;;;;;;5034951;28;20021;-76
2023/06/26 04:38:10;;;;;;;9.68;1.13;;;20.00;99.90;;;;;;5035110;28;20021;-76
2023/06/26 04:40:35;;;;;;;10.10;1.48;;;20.10;99.90;;;;;;5035636;28;20020;-75
2023/06/26 04:43:01;;;;;;;5.78;0.50;;;20.20;99.90;;;;;;5035532;28;20022;-75
2023/06/26 04:45:27;;;;;;;8.38;0.68;;;20.20;99.90;;;;;;5033952;28;20144;-73
2023/06/26 04:47:52;;;;;;;5.85;0.85;;;20.30;99.90;;;;;;5035139;28;20530;-73
2023/06/26 04:50:18;;;;;;;12.70;0.88;;;20.40;99.90;;;;;;5035071;28;20151;-73
2023/06/26 04:52:44;;;;;;;5.35;0.65;;;20.50;99.90;;;;;;5034951;28;20079;-73
2023/06/26 04:55:10;;;;;;;6.68;0.80;;;20.50;99.90;;;;;;5033651;28;20100;-73
2023/06/26 04:57:35;;;;;;;6.43;0.43;;;20.50;99.90;;;;;;5034841;28;20047;-73
2023/06/26 05:00:02;;;;;;;4.45;0.70;;;20.40;99.90;;;;;;5034845;28;20388;-73
2023/06/26 05:02:29;;;;;;;3.58;0.80;;;;;;;;;;5034873;28;20048;-73
2023/06/26 05:04:54;;;;;;;3.80;0.85;;;20.20;99.90;;;;;;5034883;28;20025;-73
2023/06/26 05:07:20;;;;;;;1.70;0.30;;;20.20;99.90;;;;;;5034733;28;20076;-73
2023/06/26 05:09:45;;;;;;;2.60;0.35;;;20.10;99.90;;;;;;5034615;28;20030;-73
2023/06/26 05:12:12;;;;;;;5.55;0.95;;;20.20;99.90;;;;;;5034693;28;20022;-73
2023/06/26 05:14:38;;;;;;;3.70;0.60;;;;;;;;;;5049838;28;20063;-73
2023/06/26 05:17:04;;;;;;;3.90;0.30;;;20.30;99.90;;;;;;5034279;28;20026;-73
2023/06/26 05:19:30;;;;;;;9.07;1.05;;;20.40;99.90;;;;;;5034948;28;20084;-73
2023/06/26 05:21:56;;;;;;;3.22;0.50;;;20.40;99.90;;;;;;5034246;28;20025;-73
2023/06/26 05:24:22;;;;;;;1.58;0.32;;;20.60;99.90;;;;;;5034150;28;20532;-73
2023/06/26 05:26:48;;;;;;;3.97;0.30;;;20.70;99.90;;;;;;5034289;28;20163;-72
2023/06/26 05:29:14;;;;;;;5.82;0.57;;;20.80;99.90;;;;;;5034652;28;20087;-73
2023/06/26 05:31:41;;;;;;;1.40;0.52;;;20.90;99.90;;;;;;5034071;28;20420;-73
2023/06/26 05:34:10;;;;;;;1.73;0.30;;;20.90;99.90;;;;;;5033844;28;20415;-73
2023/06/26 05:36:35;;;;;;;;;;;21.00;99.90;;;;;;5035046;28;20464;-73
2023/06/26 05:39:02;;;;;;;2.17;0.10;;;21.00;99.90;;;;;;5032435;28;19905;-73
2023/06/26 05:41:28;;;;;;;2.85;0.10;;;21.00;99.90;;;;;;5034094;28;20024;-73
2023/06/26 05:43:54;;;;;;;1.98;0.10;;;21.10;99.90;;;;;;5049265;28;20448;-72
2023/06/26 05:46:20;;;;;;;1.52;0.38;;;21.10;99.90;;;;;;5033973;28;20480;-72
2023/06/26 05:48:45;;;;;;;1.42;0.20;;;21.10;99.90;;;;;;5034235;28;20040;-73
2023/06/26 05:51:11;;;;;;;1.20;0.30;;;21.20;99.90;;;;;;5033819;28;20036;-73
2023/06/26 05:53:37;;;;;;;1.17;0.20;;;21.20;99.90;;;;;;5034411;28;20026;-72
2023/06/26 05:56:03;;;;;;;2.20;0.25;;;21.30;99.90;;;;;;5033591;28;20061;-72
2023/06/26 05:58:29;;;;;;;0.75;0.15;;;21.40;99.90;;;;;;5033547;28;20060;-72
2023/06/26 06:00:55;;;;;;;3.60;0.30;;;21.50;99.90;;;;;;5033478;28;20018;-72
2023/06/26 06:03:21;;;;;;;2.80;0.10;;;21.60;99.90;;;;;;5048699;28;20023;-72
2023/06/26 06:05:46;;;;;;;6.30;0.40;;;21.70;99.90;;;;;;5034032;28;20488;-72
2023/06/26 06:08:12;;;;;;;5.95;0.10;;;21.70;99.90;;;;;;5048827;28;20037;-72
2023/06/26 06:10:37;;;;;;;0.50;0.10;;;21.70;99.90;;;;;;5048725;28;20402;-72
2023/06/26 06:13:03;;;;;;;2.25;0.15;;;21.70;99.90;;;;;;5033211;28;20385;-72
2023/06/26 06:15:29;;;;;;;1.27;0.10;;;22.10;99.90;;;;;;5048246;28;20111;-72
2023/06/26 06:17:54;;;;;;;3.60;0.10;;;21.80;99.90;;;;;;5032401;28;20033;-72
2023/06/26 06:20:20;;;;;;;1.80;0.20;;;21.80;99.90;;;;;;5031080;28;20424;-72
2023/06/26 06:22:46;;;;;;;2.30;0.15;;;21.90;99.90;;;;;;5048618;28;20017;-72
2023/06/26 06:25:11;;;;;;;2.45;0.20;;;21.90;99.90;;;;;;5032256;28;20044;-72
2023/06/26 06:27:37;;;;;;;0.73;0.30;;;21.80;99.90;;;;;;5047976;28;20020;-72
2023/06/26 06:30:03;;;;;;;0.47;0.10;;;21.80;99.90;;;;;;5033772;28;20060;-72
2023/06/26 06:32:28;;;;;;;2.17;0.10;;;21.80;99.90;;;;;;5031836;28;20116;-72
2023/06/26 06:34:54;;;;;;;1.85;0.38;;;22.00;99.90;;;;;;5031878;28;20017;-72
2023/06/26 06:37:19;;;;;;;0.65;0.10;;;22.20;99.90;;;;;;5033758;28;20029;-72
2023/06/26 06:39:48;;;;;;;2.35;0.20;;;22.40;99.90;;;;;;5033625;28;20049;-72
2023/06/26 06:42:13;;;;;;;1.45;0.35;;;22.20;99.90;;;;;;5032917;28;20501;-72
2023/06/26 06:44:39;;;;;;;4.18;0.73;;;22.20;99.90;;;;;;5033118;28;20063;-72
2023/06/26 06:47:04;;;;;;;0.80;0.10;;;22.10;99.90;;;;;;5033082;28;20026;-72
2023/06/26 06:49:30;;;;;;;1.55;0.15;;;22.10;99.90;;;;;;5033290;28;20030;-72
2023/06/26 06:51:56;;;;;;;2.83;0.93;;;22.10;99.90;;;;;;5037122;28;20053;-72
2023/06/26 06:54:25;;;;;;;0.90;0.00;;;22.30;99.90;;;;;;5036725;28;20080;-72
2023/06/26 06:56:51;;;;;;;1.13;0.10;;;22.50;99.90;;;;;;5036766;28;20100;-72
2023/06/26 06:59:16;;;;;;;1.05;0.17;;;22.60;99.90;;;;;;5036825;28;20115;-72
2023/06/26 07:01:42;;;;;;;2.28;0.30;;;22.70;99.90;;;;;;5036885;28;20496;-72
2023/06/26 07:04:08;;;;;;;2.10;0.13;;;22.70;99.90;;;;;;5036506;28;20049;-72
2023/06/26 07:06:34;;;;;;;7.30;0.70;;;22.80;99.90;;;;;;5036631;28;20029;-72
2023/06/26 07:08:59;;;;;;;1.48;0.17;;;22.70;99.90;;;;;;5036563;28;20052;-72
2023/06/26 07:11:25;;;;;;;2.95;0.47;;;22.70;99.90;;;;;;5035246;28;20033;-72
2023/06/26 07:13:50;;;;;;;4.43;0.15;;;22.60;99.90;;;;;;5035121;28;20132;-72
2023/06/26 07:16:16;;;;;;;2.28;0.00;;;22.50;99.90;;;;;;5036623;28;20037;-72
2023/06/26 07:18:43;;;;;;;3.25;0.60;;;22.40;99.90;;;;;;5036414;28;20063;-72
2023/06/26 07:21:08;;;;;;;4.13;0.15;;;22.10;99.90;;;;;;5035221;28;20029;-72
2023/06/26 07:23:34;;;;;;;2.70;0.10;;;22.00;99.90;;;;;;5035508;28;20551;-72
2023/06/26 07:25:59;;;;;;;3.67;0.20;;;22.10;99.90;;;;;;5035195;28;20017;-72
2023/06/26 07:28:25;;;;;;;1.48;0.20;;;22.10;99.90;;;;;;5037006;28;20022;-72
2023/06/26 07:30:51;;;;;;;2.55;0.00;;;22.30;99.90;;;;;;5036489;28;20092;-72
2023/06/26 07:33:16;;;;;;;1.17;0.15;;;22.50;99.90;;;;;;5036353;28;20362;-72
2023/06/26 07:35:42;;;;;;;3.53;0.30;;;22.60;99.90;;;;;;5036700;28;20032;-72
2023/06/26 07:38:07;;;;;;;3.65;0.00;;;22.70;99.90;;;;;;5036344;28;20030;-72
2023/06/26 07:40:33;;;;;;;1.55;0.00;;;22.90;99.90;;;;;;5036270;28;20107;-72
2023/06/26 07:42:58;;;;;;;5.25;0.32;;;23.00;99.90;;;;;;5036454;28;20025;-72
2023/06/26 07:45:24;;;;;;;3.63;0.20;;;22.90;99.90;;;;;;5036751;28;20028;-72
2023/06/26 07:47:49;;;;;;;0.88;0.05;;;22.80;99.90;;;;;;5036090;28;20028;-72
2023/06/26 07:50:21;;;;;;;5.00;0.10;;;22.90;99.90;;;;;;5034727;28;20060;-72
2023/06/26 07:52:47;;;;;;;1.90;0.03;;;23.20;99.90;;;;;;5036390;28;20026;-72
2023/06/26 07:55:12;;;;;;;3.08;0.30;;;23.30;99.90;;;;;;5035897;28;20030;-72
2023/06/26 07:57:38;;;;;;;4.10;0.10;;;23.30;99.90;;;;;;5035943;28;20022;-72
2023/06/26 08:00:06;;;;;;;12.43;0.68;;;23.30;99.90;;;;;;5036369;28;20426;-72
2023/06/26 08:02:32;;;;;;;;;;;23.20;99.90;;;;;;5036006;28;20026;-72
2023/06/26 08:04:57;;;;;;;3.38;0.00;;;23.20;99.90;;;;;;5035770;28;19911;-72
2023/06/26 08:07:23;;;;;;;1.67;0.00;;;23.30;99.90;;;;;;5035845;28;20048;-72
2023/06/26 08:09:48;;;;;;;2.00;0.03;;;23.30;99.90;;;;;;5036234;28;20029;-72
2023/06/26 08:12:14;;;;;;;0.52;0.00;;;23.20;99.90;;;;;;5035633;28;20112;-72
2023/06/26 08:14:39;;;;;;;1.33;0.38;;;23.10;99.90;;;;;;5035387;28;20026;-72
2023/06/26 08:17:05;;;;;;;3.60;0.20;;;23.30;99.90;;;;;;5035574;28;20036;-72
2023/06/26 08:19:30;;;;;;;2.55;0.80;;;23.50;99.90;;;;;;5034299;28;20027;-72
2023/06/26 08:21:56;;;;;;;4.65;0.15;;;23.60;99.90;;;;;;5036039;28;20017;-72
2023/06/26 08:24:22;;;;;;;1.38;0.10;;;;;;;;;;5034017;28;20025;-72
2023/06/26 08:26:48;;;;;;;4.38;0.38;;;24.10;99.90;;;;;;5035425;28;20029;-72
2023/06/26 08:29:14;;;;;;;3.95;0.17;;;24.00;99.90;;;;;;5035314;28;20021;-72
2023/06/26 08:31:40;;;;;;;3.63;0.10;;;24.00;99.90;;;;;;5035302;28;20507;-72
2023/06/26 08:34:07;;;;;;;2.83;0.10;;;23.90;99.90;;;;;;5035280;28;20084;-72
2023/06/26 08:36:33;;;;;;;4.15;0.47;;;23.40;99.90;;;;;;5035188;28;20014;-72
2023/06/26 08:38:58;;;;;;;1.58;0.00;;;23.20;99.90;;;;;;5033891;28;20024;-72
2023/06/26 08:41:24;;;;;;;1.92;0.10;;;23.30;99.90;;;;;;5035655;28;20085;-72
2023/06/26 08:43:52;;;;;;;4.10;0.00;;;23.50;99.90;;;;;;5034911;28;20018;-72
2023/06/26 08:46:19;;;;;;;3.00;0.10;;;23.70;99.90;;;;;;5034966;28;20037;-72
2023/06/26 08:48:49;;;;;;;1.33;0.22;;;23.80;99.90;;;;;;5034963;28;20086;-72
2023/06/26 08:51:18;;;;;;;1.38;0.10;;;23.40;99.90;;;;;;5035565;28;20104;-72
2023/06/26 08:53:51;;;;;;;2.05;0.08;;;23.50;99.90;;;;;;5034655;28;20029;-72
2023/06/26 08:56:21;;;;;;;5.10;0.20;;;23.50;99.90;;;;;;5034918;28;20018;-72
2023/06/26 08:58:47;;;;;;;2.22;0.03;;;23.50;99.90;;;;;;5034771;28;20029;-72
2023/06/26 09:01:13;;;;;;;1.75;0.20;;;23.60;99.90;;;;;;5034787;28;20052;-72
2023/06/26 09:03:38;;;;;;;3.03;0.30;;;23.80;99.90;;;;;;5033454;28;20038;-72
2023/06/26 09:06:04;;;;;;;1.42;0.00;;;23.90;99.90;;;;;;5034644;28;20026;-72
2023/06/26 09:08:30;;;;;;;1.75;0.03;;;23.80;99.90;;;;;;5034613;28;20472;-72
2023/06/26 09:10:55;;;;;;;1.45;0.22;;;23.80;99.90;;;;;;5034605;28;20109;-72
2023/06/26 09:13:21;;;;;;;0.90;0.00;;;23.80;99.90;;;;;;5033754;28;20029;-72
2023/06/26 09:15:47;;;;;;;2.05;0.32;;;23.90;99.90;;;;;;5033185;28;20021;-72
2023/06/26 09:18:16;;;;;;;1.30;0.17;;;23.80;99.40;;;;;;5033101;28;20076;-72
2023/06/26 09:20:42;;;;;;;2.15;0.03;;;23.50;99.90;;;;;;5034341;28;20013;-72
2023/06/26 09:23:08;;;;;;;6.50;0.00;;;23.50;99.90;;;;;;5034238;28;20026;-73
2023/06/26 09:25:34;;;;;;;1.55;0.00;;;23.60;99.90;;;;;;5034302;28;20114;-74
2023/06/26 09:28:01;;;;;;;1.45;0.22;;;23.60;99.90;;;;;;5033181;28;20021;-73
2023/06/26 09:30:26;;;;;;;1.00;0.28;;;23.80;99.90;;;;;;5033201;28;20397;-73
2023/06/26 09:32:54;;;;;;;1.35;0.00;;;24.00;99.40;;;;;;5034061;28;20018;-73
2023/06/26 09:35:19;;;;;;;0.68;0.00;;;24.20;99.90;;;;;;5034041;28;20021;-73
2023/06/26 09:37:45;;;;;;;0.05;0.00;;;24.40;99.20;;;;;;5034102;28;20025;-73
2023/06/26 09:40:11;;;;;;;2.47;0.22;;;24.50;98.70;;;;;;5034009;28;20017;-73
2023/06/26 09:42:37;;;;;;;4.45;0.40;;;24.50;97.40;;;;;;5033862;28;20092;-73
2023/06/26 09:45:02;;;;;;;1.50;0.00;;;24.40;96.80;;;;;;5033989;28;20511;-73
2023/06/26 09:47:31;;;;;;;1.35;0.00;;;24.10;98.10;;;;;;5034461;28;20033;-73
2023/06/26 09:49:57;;;;;;;0.82;0.13;;;24.30;97.90;;;;;;5033899;28;20473;-73
2023/06/26 09:52:26;;;;;;;0.52;0.10;;;24.40;97.40;;;;;;5033778;28;20035;-73
2023/06/26 09:55:08;;;;;;;0.85;0.00;;;24.30;97.50;;;;;;5033608;28;20029;-73
2023/06/26 09:57:35;;;;;;;1.92;0.00;;;24.50;97.90;;;;;;5033818;28;20017;-74
2023/06/26 10:00:01;;;;;;;0.90;0.10;;;24.70;96.70;;;;;;5033717;28;20030;-73
2023/06/26 10:02:27;;;;;;;1.85;0.05;;;24.90;95.80;;;;;;5033491;28;20024;-73
2023/06/26 10:04:53;;;;;;;3.67;0.65;;;24.70;95.30;;;;;;5033591;28;20112;-74
2023/06/26 10:07:19;;;;;;;2.30;0.08;;;25.00;96.50;;;;;;5033340;28;20056;-74
2023/06/26 10:09:48;;;;;;;2.33;0.00;;;25.10;95.80;;;;;;5033306;28;20533;-75
2023/06/26 10:12:28;;;;;;;0.75;0.10;;;24.80;94.90;;;;;;5033450;28;20049;-74
2023/06/26 10:14:55;;;;;;;1.95;0.00;;;24.90;95.10;;;;;;5033655;28;20130;-75
2023/06/26 10:17:21;;;;;;;0.68;0.00;;;24.70;94.90;;;;;;5048761;28;20021;-74
2023/06/26 10:19:48;;;;;;;0.98;0.13;;;24.60;94.90;;;;;;5033469;28;20030;-74
2023/06/26 10:22:17;;;;;;;2.60;0.30;;;24.70;96.30;;;;;;5033358;28;20025;-74
2023/06/26 10:24:45;;;;;;;3.50;0.17;;;24.70;96.20;;;;;;5032526;28;20064;-75
2023/06/26 10:27:15;;;;;;;1.90;0.00;;;25.00;95.20;;;;;;5033286;28;20538;-75
2023/06/26 10:29:43;;;;;;;1.65;0.00;;;25.20;94.30;;;;;;5033871;28;20541;-74
2023/06/26 10:32:12;;;;;;;1.03;0.00;;;25.60;93.60;;;;;;5033404;28;20115;-75
2023/06/26 10:34:38;;;;;;;0.45;0.00;;;25.80;92.90;;;;;;5033181;28;20577;-74
2023/06/26 10:37:04;;;;;;;0.55;0.00;;;26.00;92.10;;;;;;5032486;28;20096;-75
2023/06/26 10:39:49;;;;;;;2.72;0.00;;;26.10;92.00;;;;;;5033329;28;20095;-75
2023/06/26 10:42:16;;;;;;;0.57;0.00;;;26.10;90.70;;;;;;5031917;28;20033;-75
2023/06/26 10:44:43;;;;;;;0.30;0.00;;;25.80;89.10;;;;;;5048424;28;20024;-73
2023/06/26 10:47:09;;;;;;;1.77;0.10;;;25.20;91.10;;;;;;5033043;28;20034;-73
2023/06/26 10:49:36;;;;;;;1.13;0.05;;;25.10;91.50;;;;;;5033115;28;20049;-73
2023/06/26 10:52:02;;;;;;;3.00;0.25;;;25.10;91.50;;;;;;5031929;28;20033;-74
2023/06/26 10:54:30;;;;;;;4.03;0.00;;;25.40;92.40;;;;;;5033234;28;20504;-74
2023/06/26 10:56:56;;;;;;;1.38;0.00;;;25.70;91.80;;;;;;5033142;28;20025;-73
2023/06/26 10:59:26;;;;;;;0.20;0.00;;;25.80;91.20;;;;;;5033027;28;20401;-74
2023/06/26 11:01:56;;;;;;;1.02;0.00;;;25.80;90.80;;;;;;5032906;28;20025;-73
2023/06/26 11:04:43;;;;;;;0.65;0.00;;;25.10;89.90;;;;;;5032971;28;20029;-73
2023/06/26 11:07:23;;;;;;;1.45;0.00;;;24.90;91.50;;;;;;5048257;28;20136;-73
2023/06/26 11:09:55;;;;;;;0.85;0.10;;;25.10;91.80;;;;;;5032934;28;20483;-71
2023/06/26 11:12:41;;;;;;;1.65;0.00;;;25.40;91.80;;;;;;5032835;28;20013;-73
2023/06/26 11:15:12;;;;;;;1.15;0.25;;;25.40;89.90;;;;;;5031659;28;20065;-75
2023/06/26 11:17:39;;;;;;;1.15;0.00;;;25.40;90.60;;;;;;5033401;28;20022;-74
2023/06/26 11:20:22;;;;;;;1.35;0.00;;;25.50;91.00;;;;;;5031430;28;20051;-74
2023/06/26 11:22:52;;;;;;;0.08;0.00;;;25.30;90.90;;;;;;5032783;28;20021;-74
2023/06/26 11:25:20;;;;;;;0.43;0.00;;;25.20;90.90;;;;;;5032580;28;20022;-73
2023/06/26 11:27:45;;;;;;;0.52;0.00;;;25.30;90.20;;;;;;5032755;28;20029;-73
2023/06/26 11:30:30;;;;;;;3.85;0.30;;;25.40;88.50;;;;;;5032733;28;20039;-73
2023/06/26 11:33:06;;;;;;;1.67;0.00;;;25.10;87.40;;;;;;5032810;28;20408;-73
2023/06/26 11:35:32;;;;;;;2.30;0.00;;;25.20;89.00;;;;;;5033473;28;20465;-73
2023/06/26 11:38:04;;;;;;;0.13;0.03;;;25.40;90.40;;;;;;5036317;28;20049;-73
2023/06/26 11:40:34;;;;;;;0.52;0.10;;;25.70;90.10;;;;;;5036413;28;20112;-73
2023/06/26 11:43:00;;;;;;;1.17;0.00;;;26.20;87.70;;;;;;5035977;28;20092;-73
2023/06/26 11:45:29;;;;;;;5.45;0.10;;;26.40;86.60;;;;;;5034893;28;20025;-73
2023/06/26 11:48:03;;;;;;;2.70;0.15;;;26.70;86.30;;;;;;5036220;28;20100;-73
2023/06/26 11:50:29;;;;;;;0.45;0.08;;;26.90;84.40;;;;;;5034841;28;20404;-73
2023/06/26 11:52:59;;;;;;;1.85;0.10;;;26.70;83.70;;;;;;5035880;28;20026;-73
2023/06/26 11:55:25;;;;;;;0.65;0.10;;;26.80;83.20;;;;;;5035841;28;20030;-73
2023/06/26 11:57:54;;;;;;;1.38;0.00;;;26.60;82.10;;;;;;5035922;28;20021;-73
2023/06/26 12:00:19;;;;;;;;;;;26.80;82.10;;;;;;5036223;28;20021;-73
2023/06/26 12:02:46;;;;;;;1.30;0.00;;;26.90;82.00;;;;;;5035776;28;19955;-73
2023/06/26 12:05:13;;;;;;;0.38;0.00;;;27.00;79.60;;;;;;5035904;28;20396;-73
2023/06/26 12:07:41;;;;;;;1.58;0.05;;;27.10;77.60;;;;;;5035790;28;20025;-73
2023/06/26 12:10:07;;;;;;;1.13;0.00;;;27.20;77.20;;;;;;5035820;28;20025;-73
2023/06/26 12:12:33;;;;;;;1.83;0.00;;;27.20;79.10;;;;;;5035753;28;20527;-73
2023/06/26 12:15:02;;;;;;;0.30;0.00;;;27.30;76.10;;;;;;5050795;28;20082;-73
2023/06/26 12:17:27;;;;;;;;;;;27.50;77.50;;;;;;5034392;28;20048;-74
2023/06/26 12:19:53;;;;;;;0.20;0.00;;;27.70;75.00;;;;;;5035660;28;19905;-73
2023/06/26 12:22:19;;;;;;;0.20;0.00;;;28.10;71.30;;;;;;5035579;28;20482;-73
2023/06/26 12:24:45;;;;;;;2.65;0.20;;;28.10;72.30;;;;;;5035624;28;20026;-73
2023/06/26 12:27:13;;;;;;;0.40;0.10;;;28.10;72.40;;;;;;5035481;28;20040;-73
2023/06/26 12:29:41;;;;;;;2.27;0.50;;;28.10;70.90;;;;;;5036017;28;20377;-73
2023/06/26 12:32:10;;;;;;;2.03;0.10;;;28.00;70.00;;;;;;5035300;28;20272;-74
2023/06/26 12:34:38;;;;;;;0.38;0.00;;;28.00;70.30;;;;;;5033809;28;20021;-73
2023/06/26 12:37:11;;;;;;;0.45;0.15;;;27.90;66.40;;;;;;5035310;28;20028;-73
2023/06/26 12:39:54;;;;;;;1.50;0.00;;;27.70;69.40;;;;;;5035292;28;20034;-73
2023/06/26 12:42:24;;;;;;;1.38;0.25;;;27.70;69.70;;;;;;5035598;28;20075;-73
2023/06/26 12:44:51;;;;;;;0.57;0.00;;;27.70;70.20;;;;;;5035194;28;20026;-73
2023/06/26 12:47:18;;;;;;;1.42;0.00;;;27.80;70.90;;;;;;5034238;28;20100;-73